sensor_id;sensor_type;location;lat;lon;timestamp;pressure;altitude;pressure_sealevel;temperature;humidity
48652;BME280;34442;52.362;-1.302;2022-10-22T00:01:33;98769.25;;;15.17;100.00
48652;BME280;34442;52.362;-1.302;2022-10-22T00:03:59;98768.69;;;15.20;100.00
48652;BME280;34442;52.362;-1.302;2022-10-22T00:06:25;98768.44;;;15.17;100.00
48652;BME280;34442;52.362;-1.302;2022-10-22T00:08:51;98769.53;;;15.16;100.00
48652;BME280;34442;52.362;-1.302;2022-10-22T00:11:18;98782.50;;;15.13;100.00
48652;BME280;34442;52.362;-1.302;2022-10-22T00:13:46;98783.88;;;15.16;100.00
48652;BME280;34442;52.362;-1.302;2022-10-22T00:16:12;98782.78;;;15.17;100.00
48652;BME280;34442;52.362;-1.302;2022-10-22T00:18:38;98793.63;;;15.12;100.00
48652;BME280;34442;52.362;-1.302;2022-10-22T00:21:05;98795.25;;;15.13;100.00
48652;BME280;34442;52.362;-1.302;2022-10-22T00:23:32;98797.69;;;15.09;100.00
48652;BME280;34442;52.362;-1.302;2022-10-22T00:25:58;98805.53;;;15.06;100.00
48652;BME280;34442;52.362;-1.302;2022-10-22T00:28:24;98810.44;;;15.04;100.00
48652;BME280;34442;52.362;-1.302;2022-10-22T00:30:58;98810.44;;;15.04;100.00
48652;BME280;34442;52.362;-1.302;2022-10-22T00:33:26;98814.50;;;15.01;100.00
48652;BME280;34442;52.362;-1.302;2022-10-22T00:35:53;98816.94;;;14.98;100.00
48652;BME280;34442;52.362;-1.302;2022-10-22T00:38:19;98818.59;;;14.94;100.00
48652;BME280;34442;52.362;-1.302;2022-10-22T00:40:45;98819.38;;;14.99;100.00
48652;BME280;34442;52.362;-1.302;2022-10-22T00:43:13;98833.44;;;14.96;100.00
48652;BME280;34442;52.362;-1.302;2022-10-22T00:45:40;98829.13;;;14.95;100.00
48652;BME280;34442;52.362;-1.302;2022-10-22T00:48:08;98834.81;;;14.88;100.00
48652;BME280;34442;52.362;-1.302;2022-10-22T00:50:42;98836.44;;;14.89;100.00
48652;BME280;34442;52.362;-1.302;2022-10-22T00:53:18;98832.66;;;14.85;100.00
48652;BME280;34442;52.362;-1.302;2022-10-22T00:55:48;98842.13;;;14.88;100.00
48652;BME280;34442;52.362;-1.302;2022-10-22T00:58:17;98836.72;;;14.83;100.00
48652;BME280;34442;52.362;-1.302;2022-10-22T01:00:46;98850.25;;;14.78;100.00
48652;BME280;34442;52.362;-1.302;2022-10-22T01:03:13;98847.25;;;14.84;100.00
48652;BME280;34442;52.362;-1.302;2022-10-22T01:05:47;98858.34;;;14.88;100.00
48652;BME280;34442;52.362;-1.302;2022-10-22T01:14:03;98876.47;;;14.87;100.00
48652;BME280;34442;52.362;-1.302;2022-10-22T01:22:04;98875.41;;;14.88;100.00
48652;BME280;34442;52.362;-1.302;2022-10-22T01:24:41;98877.28;;;14.88;100.00
48652;BME280;34442;52.362;-1.302;2022-10-22T01:27:22;98878.38;;;14.87;100.00
48652;BME280;34442;52.362;-1.302;2022-10-22T01:30:00;98882.69;;;14.93;100.00
48652;BME280;34442;52.362;-1.302;2022-10-22T01:32:30;98890.56;;;14.95;100.00
48652;BME280;34442;52.362;-1.302;2022-10-22T01:35:01;98896.50;;;14.97;100.00
48652;BME280;34442;52.362;-1.302;2022-10-22T01:37:31;98896.50;;;15.02;100.00
48652;BME280;34442;52.362;-1.302;2022-10-22T01:40:00;98896.75;;;15.05;100.00
48652;BME280;34442;52.362;-1.302;2022-10-22T01:42:27;98903.53;;;15.03;100.00
48652;BME280;34442;52.362;-1.302;2022-10-22T01:44:53;98895.41;;;15.08;100.00
48652;BME280;34442;52.362;-1.302;2022-10-22T01:47:46;98901.34;;;15.10;100.00
48652;BME280;34442;52.362;-1.302;2022-10-22T01:58:13;98911.63;;;15.13;100.00
48652;BME280;34442;52.362;-1.302;2022-10-22T02:00:49;98910.81;;;15.18;100.00
48652;BME280;34442;52.362;-1.302;2022-10-22T02:03:35;98903.50;;;15.18;100.00
48652;BME280;34442;52.362;-1.302;2022-10-22T02:06:09;98909.22;;;15.11;100.00
48652;BME280;34442;52.362;-1.302;2022-10-22T02:08:37;98911.91;;;15.11;100.00
48652;BME280;34442;52.362;-1.302;2022-10-22T02:11:04;98918.94;;;15.12;100.00
48652;BME280;34442;52.362;-1.302;2022-10-22T02:13:36;98918.41;;;15.05;100.00
48652;BME280;34442;52.362;-1.302;2022-10-22T02:16:09;98919.22;;;15.11;100.00
48652;BME280;34442;52.362;-1.302;2022-10-22T02:18:38;98931.66;;;15.17;100.00
48652;BME280;34442;52.362;-1.302;2022-10-22T02:21:06;98928.16;;;15.11;100.00
48652;BME280;34442;52.362;-1.302;2022-10-22T02:23:32;98937.09;;;15.12;100.00
48652;BME280;34442;52.362;-1.302;2022-10-22T02:26:06;98934.94;;;15.19;100.00
48652;BME280;34442;52.362;-1.302;2022-10-22T02:28:55;98931.13;;;15.20;100.00
48652;BME280;34442;52.362;-1.302;2022-10-22T02:31:26;98940.34;;;15.19;100.00
48652;BME280;34442;52.362;-1.302;2022-10-22T02:33:55;98937.63;;;15.19;100.00
48652;BME280;34442;52.362;-1.302;2022-10-22T02:36:23;98939.25;;;15.15;100.00
48652;BME280;34442;52.362;-1.302;2022-10-22T02:38:50;98941.94;;;15.10;100.00
48652;BME280;34442;52.362;-1.302;2022-10-22T02:41:17;98952.53;;;15.11;100.00
48652;BME280;34442;52.362;-1.302;2022-10-22T02:43:51;98952.25;;;15.13;100.00
48652;BME280;34442;52.362;-1.302;2022-10-22T02:46:18;98960.38;;;15.13;100.00
48652;BME280;34442;52.362;-1.302;2022-10-22T02:48:44;98964.69;;;15.14;100.00
48652;BME280;34442;52.362;-1.302;2022-10-22T02:51:10;98972.81;;;15.14;100.00
48652;BME280;34442;52.362;-1.302;2022-10-22T02:53:36;98980.41;;;15.12;100.00
48652;BME280;34442;52.362;-1.302;2022-10-22T02:56:02;98980.13;;;15.13;100.00
48652;BME280;34442;52.362;-1.302;2022-10-22T02:58:28;98978.50;;;15.18;100.00
48652;BME280;34442;52.362;-1.302;2022-10-22T03:00:54;98976.06;;;15.16;100.00
48652;BME280;34442;52.362;-1.302;2022-10-22T03:03:20;98986.63;;;15.18;100.00
48652;BME280;34442;52.362;-1.302;2022-10-22T03:05:46;98993.13;;;15.17;100.00
48652;BME280;34442;52.362;-1.302;2022-10-22T03:08:12;98994.47;;;15.19;100.00
48652;BME280;34442;52.362;-1.302;2022-10-22T03:10:38;98994.47;;;15.14;100.00
48652;BME280;34442;52.362;-1.302;2022-10-22T03:13:04;99001.78;;;15.13;100.00
48652;BME280;34442;52.362;-1.302;2022-10-22T03:15:30;98999.34;;;15.07;100.00
48652;BME280;34442;52.362;-1.302;2022-10-22T03:17:56;99010.19;;;15.07;100.00
48652;BME280;34442;52.362;-1.302;2022-10-22T03:20:22;99018.31;;;15.02;100.00
48652;BME280;34442;52.362;-1.302;2022-10-22T03:22:48;99015.03;;;15.05;100.00
48652;BME280;34442;52.362;-1.302;2022-10-22T03:25:18;99028.03;;;15.03;100.00
48652;BME280;34442;52.362;-1.302;2022-10-22T03:27:46;99028.28;;;15.01;100.00
48652;BME280;34442;52.362;-1.302;2022-10-22T03:30:12;99034.78;;;15.00;100.00
48652;BME280;34442;52.362;-1.302;2022-10-22T03:32:38;99026.44;;;15.02;100.00
48652;BME280;34442;52.362;-1.302;2022-10-22T03:35:05;99036.97;;;14.98;100.00
48652;BME280;34442;52.362;-1.302;2022-10-22T03:37:32;99033.47;;;14.98;100.00
48652;BME280;34442;52.362;-1.302;2022-10-22T03:39:59;99044.25;;;14.93;100.00
48652;BME280;34442;52.362;-1.302;2022-10-22T03:42:25;99047.75;;;14.93;100.00
48652;BME280;34442;52.362;-1.302;2022-10-22T03:44:51;99059.69;;;14.92;100.00
48652;BME280;34442;52.362;-1.302;2022-10-22T03:47:17;99057.78;;;14.87;100.00
48652;BME280;34442;52.362;-1.302;2022-10-22T03:49:43;99062.09;;;14.83;100.00
48652;BME280;34442;52.362;-1.302;2022-10-22T03:52:12;99067.50;;;14.78;100.00
48652;BME280;34442;52.362;-1.302;2022-10-22T03:54:39;99075.34;;;14.80;100.00
48652;BME280;34442;52.362;-1.302;2022-10-22T03:57:06;99085.06;;;14.71;100.00
48652;BME280;34442;52.362;-1.302;2022-10-22T03:59:36;99089.66;;;14.75;100.00
48652;BME280;34442;52.362;-1.302;2022-10-22T04:02:02;99089.66;;;14.70;100.00
48652;BME280;34442;52.362;-1.302;2022-10-22T04:04:29;99098.03;;;14.69;100.00
48652;BME280;34442;52.362;-1.302;2022-10-22T04:06:55;99102.91;;;14.67;100.00
48652;BME280;34442;52.362;-1.302;2022-10-22T04:09:21;99098.81;;;14.64;100.00
48652;BME280;34442;52.362;-1.302;2022-10-22T04:11:47;99103.72;;;14.67;100.00
48652;BME280;34442;52.362;-1.302;2022-10-22T04:14:13;99108.53;;;14.60;100.00
48652;BME280;34442;52.362;-1.302;2022-10-22T04:16:40;99106.13;;;14.58;100.00
48652;BME280;34442;52.362;-1.302;2022-10-22T04:19:06;99106.91;;;14.59;100.00
48652;BME280;34442;52.362;-1.302;2022-10-22T04:21:33;99116.09;;;14.53;100.00
48652;BME280;34442;52.362;-1.302;2022-10-22T04:23:59;99119.06;;;14.51;100.00
48652;BME280;34442;52.362;-1.302;2022-10-22T04:26:26;99122.84;;;14.50;100.00
48652;BME280;34442;52.362;-1.302;2022-10-22T04:28:52;99125.28;;;14.52;100.00
48652;BME280;34442;52.362;-1.302;2022-10-22T04:31:20;99131.44;;;14.47;100.00
48652;BME280;34442;52.362;-1.302;2022-10-22T04:33:50;99136.84;;;14.47;100.00
48652;BME280;34442;52.362;-1.302;2022-10-22T04:36:17;99129.81;;;14.46;100.00
48652;BME280;34442;52.362;-1.302;2022-10-22T04:38:45;99142.78;;;14.44;100.00
48652;BME280;34442;52.362;-1.302;2022-10-22T04:41:14;99145.22;;;14.40;100.00
48652;BME280;34442;52.362;-1.302;2022-10-22T04:43:41;99135.44;;;14.34;100.00
48652;BME280;34442;52.362;-1.302;2022-10-22T04:46:08;99144.63;;;14.33;100.00
48652;BME280;34442;52.362;-1.302;2022-10-22T04:48:35;99143.03;;;14.37;100.00
48652;BME280;34442;52.362;-1.302;2022-10-22T04:51:02;99151.13;;;14.37;100.00
48652;BME280;34442;52.362;-1.302;2022-10-22T04:53:28;99145.97;;;14.31;100.00
48652;BME280;34442;52.362;-1.302;2022-10-22T04:55:54;99161.34;;;14.25;100.00
48652;BME280;34442;52.362;-1.302;2022-10-22T04:58:31;99157.00;;;14.24;100.00
48652;BME280;34442;52.362;-1.302;2022-10-22T05:00:56;99172.13;;;14.20;100.00
48652;BME280;34442;52.362;-1.302;2022-10-22T05:03:24;99173.47;;;14.23;100.00
48652;BME280;34442;52.362;-1.302;2022-10-22T05:05:50;99177.56;;;14.25;100.00
48652;BME280;34442;52.362;-1.302;2022-10-22T05:08:16;99176.47;;;14.26;100.00
48652;BME280;34442;52.362;-1.302;2022-10-22T05:10:42;99188.91;;;14.27;100.00
48652;BME280;34442;52.362;-1.302;2022-10-22T05:13:08;99189.75;;;14.28;100.00
48652;BME280;34442;52.362;-1.302;2022-10-22T05:15:34;99192.66;;;14.21;100.00
48652;BME280;34442;52.362;-1.302;2022-10-22T05:18:00;99186.16;;;14.17;100.00
48652;BME280;34442;52.362;-1.302;2022-10-22T05:20:27;99198.63;;;14.23;100.00
48652;BME280;34442;52.362;-1.302;2022-10-22T05:22:53;99201.88;;;14.20;100.00
48652;BME280;34442;52.362;-1.302;2022-10-22T05:25:19;99203.19;;;14.18;100.00
48652;BME280;34442;52.362;-1.302;2022-10-22T05:27:48;99205.91;;;14.23;100.00
48652;BME280;34442;52.362;-1.302;2022-10-22T05:30:15;99214.84;;;14.23;100.00
48652;BME280;34442;52.362;-1.302;2022-10-22T05:32:41;99218.59;;;14.17;100.00
48652;BME280;34442;52.362;-1.302;2022-10-22T05:35:07;99222.38;;;14.16;100.00
48652;BME280;34442;52.362;-1.302;2022-10-22T05:37:34;99221.28;;;14.17;100.00
48652;BME280;34442;52.362;-1.302;2022-10-22T05:40:00;99227.47;;;14.12;100.00
48652;BME280;34442;52.362;-1.302;2022-10-22T05:42:30;99236.94;;;14.15;100.00
48652;BME280;34442;52.362;-1.302;2022-10-22T05:44:57;99229.38;;;14.12;100.00
48652;BME280;34442;52.362;-1.302;2022-10-22T05:47:23;99232.06;;;14.12;100.00
48652;BME280;34442;52.362;-1.302;2022-10-22T05:49:49;99239.88;;;14.08;100.00
48652;BME280;34442;52.362;-1.302;2022-10-22T05:52:15;99230.97;;;14.08;100.00
48652;BME280;34442;52.362;-1.302;2022-10-22T05:54:41;99245.78;;;14.05;100.00
48652;BME280;34442;52.362;-1.302;2022-10-22T05:57:07;99235.75;;;14.01;100.00
48652;BME280;34442;52.362;-1.302;2022-10-22T05:59:33;99249.56;;;14.04;100.00
48652;BME280;34442;52.362;-1.302;2022-10-22T06:01:59;99247.09;;;14.03;100.00
48652;BME280;34442;52.362;-1.302;2022-10-22T06:04:25;99250.13;;;14.06;100.00
48652;BME280;34442;52.362;-1.302;2022-10-22T06:06:52;99258.78;;;14.08;100.00
48652;BME280;34442;52.362;-1.302;2022-10-22T06:09:30;99265.22;;;14.02;100.00
48652;BME280;34442;52.362;-1.302;2022-10-22T06:11:56;99267.38;;;14.00;100.00
48652;BME280;34442;52.362;-1.302;2022-10-22T06:14:24;99267.09;;;14.02;100.00
48652;BME280;34442;52.362;-1.302;2022-10-22T06:16:50;99267.38;;;14.00;100.00
48652;BME280;34442;52.362;-1.302;2022-10-22T06:19:19;99264.34;;;13.97;100.00
48652;BME280;34442;52.362;-1.302;2022-10-22T06:21:47;99277.81;;;13.92;100.00
48652;BME280;34442;52.362;-1.302;2022-10-22T06:24:13;99278.06;;;13.90;100.00
48652;BME280;34442;52.362;-1.302;2022-10-22T06:26:39;99277.81;;;13.92;100.00
48652;BME280;34442;52.362;-1.302;2022-10-22T06:29:06;99287.81;;;13.91;100.00
48652;BME280;34442;52.362;-1.302;2022-10-22T06:31:33;99286.44;;;13.88;100.00
48652;BME280;34442;52.362;-1.302;2022-10-22T06:34:04;99296.16;;;13.89;100.00
48652;BME280;34442;52.362;-1.302;2022-10-22T06:36:30;99297.78;;;13.90;100.00
48652;BME280;34442;52.362;-1.302;2022-10-22T06:38:56;99301.56;;;13.89;100.00
48652;BME280;34442;52.362;-1.302;2022-10-22T06:41:23;99302.66;;;13.88;100.00
48652;BME280;34442;52.362;-1.302;2022-10-22T06:43:49;99306.44;;;13.87;100.00
48652;BME280;34442;52.362;-1.302;2022-10-22T06:46:18;99312.06;;;13.86;100.00
48652;BME280;34442;52.362;-1.302;2022-10-22T06:48:56;99318.59;;;13.90;100.00
48652;BME280;34442;52.362;-1.302;2022-10-22T06:51:24;99316.16;;;13.88;100.00
48652;BME280;34442;52.362;-1.302;2022-10-22T06:53:50;99325.88;;;13.89;100.00
48652;BME280;34442;52.362;-1.302;2022-10-22T06:56:19;99318.34;;;13.92;100.00
48652;BME280;34442;52.362;-1.302;2022-10-22T06:58:50;99326.69;;;13.90;100.00
48652;BME280;34442;52.362;-1.302;2022-10-22T07:01:18;99333.69;;;13.86;100.00
48652;BME280;34442;52.362;-1.302;2022-10-22T07:03:45;99336.16;;;13.87;100.00
48652;BME280;34442;52.362;-1.302;2022-10-22T07:06:13;99350.41;;;13.83;100.00
48652;BME280;34442;52.362;-1.302;2022-10-22T07:08:40;99352.84;;;13.84;100.00
48652;BME280;34442;52.362;-1.302;2022-10-22T07:11:12;99354.75;;;13.84;100.00
48652;BME280;34442;52.362;-1.302;2022-10-22T07:13:39;99366.31;;;13.79;100.00
48652;BME280;34442;52.362;-1.302;2022-10-22T07:16:06;99370.47;;;13.87;100.00
48652;BME280;34442;52.362;-1.302;2022-10-22T07:18:33;99367.19;;;13.85;100.00
48652;BME280;34442;52.362;-1.302;2022-10-22T07:21:00;99376.84;;;13.81;100.00
48652;BME280;34442;52.362;-1.302;2022-10-22T07:23:27;99381.94;;;13.77;100.00
48652;BME280;34442;52.362;-1.302;2022-10-22T07:25:53;99387.84;;;13.74;100.00
48652;BME280;34442;52.362;-1.302;2022-10-22T07:28:19;99395.75;;;13.81;100.00
48652;BME280;34442;52.362;-1.302;2022-10-22T07:30:45;99398.16;;;13.77;100.00
48652;BME280;34442;52.362;-1.302;2022-10-22T07:33:11;99399.16;;;13.71;100.00
48652;BME280;34442;52.362;-1.302;2022-10-22T07:35:39;99405.22;;;13.39;100.00
48652;BME280;34442;52.362;-1.302;2022-10-22T07:38:06;99400.31;;;13.36;100.00
48652;BME280;34442;52.362;-1.302;2022-10-22T07:40:33;99408.09;;;13.33;100.00
48652;BME280;34442;52.362;-1.302;2022-10-22T07:43:00;99404.91;;;13.36;100.00
48652;BME280;34442;52.362;-1.302;2022-10-22T07:45:26;99412.19;;;13.35;100.00
48652;BME280;34442;52.362;-1.302;2022-10-22T07:47:52;99414.13;;;13.40;100.00
48652;BME280;34442;52.362;-1.302;2022-10-22T07:50:18;99414.84;;;13.52;100.00
48652;BME280;34442;52.362;-1.302;2022-10-22T07:52:44;99422.47;;;13.77;100.00
48652;BME280;34442;52.362;-1.302;2022-10-22T07:55:11;99421.69;;;13.82;100.00
48652;BME280;34442;52.362;-1.302;2022-10-22T07:57:40;99425.00;;;13.84;100.00
48652;BME280;34442;52.362;-1.302;2022-10-22T08:00:08;99424.34;;;13.77;100.00
48652;BME280;34442;52.362;-1.302;2022-10-22T08:02:34;99433.41;;;13.87;100.00
48652;BME280;34442;52.362;-1.302;2022-10-22T08:05:00;99431.75;;;13.86;100.00
48652;BME280;34442;52.362;-1.302;2022-10-22T08:07:26;99435.31;;;13.87;100.00
48652;BME280;34442;52.362;-1.302;2022-10-22T08:09:52;99444.53;;;13.91;100.00
48652;BME280;34442;52.362;-1.302;2022-10-22T08:12:19;99449.94;;;13.91;100.00
48652;BME280;34442;52.362;-1.302;2022-10-22T08:14:45;99457.03;;;13.97;100.00
48652;BME280;34442;52.362;-1.302;2022-10-22T08:17:11;99464.50;;;14.12;100.00
48652;BME280;34442;52.362;-1.302;2022-10-22T08:19:37;99469.72;;;14.19;100.00
48652;BME280;34442;52.362;-1.302;2022-10-22T08:22:03;99470.28;;;14.21;100.00
48652;BME280;34442;52.362;-1.302;2022-10-22T08:24:29;99472.72;;;14.22;100.00
48652;BME280;34442;52.362;-1.302;2022-10-22T08:26:55;99477.06;;;14.23;100.00
48652;BME280;34442;52.362;-1.302;2022-10-22T08:29:22;99493.34;;;14.28;100.00
48652;BME280;34442;52.362;-1.302;2022-10-22T08:31:49;99476.81;;;14.25;100.00
48652;BME280;34442;52.362;-1.302;2022-10-22T08:34:15;99480.16;;;14.32;100.00
48652;BME280;34442;52.362;-1.302;2022-10-22T08:36:41;99491.47;;;14.29;100.00
48652;BME280;34442;52.362;-1.302;2022-10-22T08:39:08;99489.31;;;14.31;100.00
48652;BME280;34442;52.362;-1.302;2022-10-22T08:42:03;99487.94;;;14.28;100.00
48652;BME280;34442;52.362;-1.302;2022-10-22T08:45:01;99482.00;;;14.31;100.00
48652;BME280;34442;52.362;-1.302;2022-10-22T08:50:00;99484.22;;;14.34;100.00
48652;BME280;34442;52.362;-1.302;2022-10-22T08:52:26;99489.19;;;14.43;100.00
48652;BME280;34442;52.362;-1.302;2022-10-22T08:54:58;99486.78;;;14.46;100.00
48652;BME280;34442;52.362;-1.302;2022-10-22T09:00:19;99492.28;;;14.51;100.00
48652;BME280;34442;52.362;-1.302;2022-10-22T09:08:13;99516.97;;;14.60;100.00
48652;BME280;34442;52.362;-1.302;2022-10-22T09:10:45;99522.59;;;14.53;100.00
48652;BME280;34442;52.362;-1.302;2022-10-22T09:13:17;99517.06;;;14.65;100.00
48652;BME280;34442;52.362;-1.302;2022-10-22T09:16:00;99517.59;;;14.67;100.00
48652;BME280;34442;52.362;-1.302;2022-10-22T09:24:11;99526.56;;;14.73;100.00
48652;BME280;34442;52.362;-1.302;2022-10-22T09:26:39;99535.28;;;14.75;100.00
48652;BME280;34442;52.362;-1.302;2022-10-22T09:29:08;99540.19;;;14.78;100.00
48652;BME280;34442;52.362;-1.302;2022-10-22T09:31:38;99532.06;;;14.78;100.00
48652;BME280;34442;52.362;-1.302;2022-10-22T09:34:04;99542.06;;;14.77;100.00
48652;BME280;34442;52.362;-1.302;2022-10-22T09:36:33;99536.13;;;14.80;100.00
48652;BME280;34442;52.362;-1.302;2022-10-22T09:39:00;99542.94;;;14.83;100.00
48652;BME280;34442;52.362;-1.302;2022-10-22T09:41:28;99548.44;;;14.93;100.00
48652;BME280;34442;52.362;-1.302;2022-10-22T09:43:57;99557.84;;;14.85;100.00
48652;BME280;34442;52.362;-1.302;2022-10-22T09:46:27;99557.59;;;14.87;100.00
48652;BME280;34442;52.362;-1.302;2022-10-22T09:49:08;99564.03;;;15.08;100.00
48652;BME280;34442;52.362;-1.302;2022-10-22T09:51:47;99557.56;;;15.14;100.00
48652;BME280;34442;52.362;-1.302;2022-10-22T09:54:17;99564.88;;;15.13;100.00
48652;BME280;34442;52.362;-1.302;2022-10-22T09:56:57;99555.94;;;15.13;100.00
48652;BME280;34442;52.362;-1.302;2022-10-22T09:59:37;99547.00;;;15.12;100.00
48652;BME280;34442;52.362;-1.302;2022-10-22T10:02:12;99552.69;;;15.11;100.00
48652;BME280;34442;52.362;-1.302;2022-10-22T10:04:55;99565.75;;;15.19;100.00
48652;BME280;34442;52.362;-1.302;2022-10-22T10:07:24;99563.28;;;15.18;100.00
48652;BME280;34442;52.362;-1.302;2022-10-22T10:09:50;99560.66;;;15.23;100.00
48652;BME280;34442;52.362;-1.302;2022-10-22T10:28:03;99592.72;;;15.36;100.00
48652;BME280;34442;52.362;-1.302;2022-10-22T10:30:37;99592.25;;;15.44;100.00
48652;BME280;34442;52.362;-1.302;2022-10-22T10:47:11;99598.44;;;15.72;100.00
48652;BME280;34442;52.362;-1.302;2022-10-22T10:49:34;99604.63;;;15.67;100.00
48652;BME280;34442;52.362;-1.302;2022-10-22T11:00:15;99604.69;;;15.72;100.00
48652;BME280;34442;52.362;-1.302;2022-10-22T11:05:44;99608.75;;;15.75;100.00
48652;BME280;34442;52.362;-1.302;2022-10-22T11:08:28;99612.88;;;15.82;100.00
48652;BME280;34442;52.362;-1.302;2022-10-22T11:13:35;99615.13;;;15.91;100.00
48652;BME280;34442;52.362;-1.302;2022-10-22T11:16:23;99613.78;;;15.93;100.00
48652;BME280;34442;52.362;-1.302;2022-10-22T11:21:31;99613.31;;;16.01;100.00
48652;BME280;34442;52.362;-1.302;2022-10-22T11:27:38;99611.38;;;15.97;100.00
48652;BME280;34442;52.362;-1.302;2022-10-22T11:29:45;99610.50;;;15.91;100.00
48652;BME280;34442;52.362;-1.302;2022-10-22T11:32:17;99612.09;;;15.87;100.00
48652;BME280;34442;52.362;-1.302;2022-10-22T11:34:47;99624.88;;;15.92;100.00
48652;BME280;34442;52.362;-1.302;2022-10-22T11:37:15;99617.28;;;15.88;100.00
48652;BME280;34442;52.362;-1.302;2022-10-22T11:42:49;99621.47;;;16.06;100.00
48652;BME280;34442;52.362;-1.302;2022-10-22T11:48:13;99610.03;;;15.99;100.00
48652;BME280;34442;52.362;-1.302;2022-10-22T11:58:44;99623.84;;;15.98;100.00
48652;BME280;34442;52.362;-1.302;2022-10-22T12:03:43;99621.28;;;15.81;100.00
48652;BME280;34442;52.362;-1.302;2022-10-22T12:17:11;99619.25;;;16.03;100.00
48652;BME280;34442;52.362;-1.302;2022-10-22T12:19:43;99616.56;;;16.03;100.00
48652;BME280;34442;52.362;-1.302;2022-10-22T12:22:17;99621.75;;;16.10;100.00
48652;BME280;34442;52.362;-1.302;2022-10-22T12:24:46;99612.50;;;16.06;100.00
48652;BME280;34442;52.362;-1.302;2022-10-22T12:29:45;99614.13;;;16.07;100.00
48652;BME280;34442;52.362;-1.302;2022-10-22T12:32:13;99611.44;;;16.07;100.00
48652;BME280;34442;52.362;-1.302;2022-10-22T12:34:48;99607.69;;;16.13;100.00
48652;BME280;34442;52.362;-1.302;2022-10-22T12:37:18;99611.22;;;16.13;100.00
48652;BME280;34442;52.362;-1.302;2022-10-22T12:39:45;99606.31;;;16.16;100.00
48652;BME280;34442;52.362;-1.302;2022-10-22T12:42:13;99598.47;;;16.14;100.00
48652;BME280;34442;52.362;-1.302;2022-10-22T12:44:39;99605.53;;;16.20;100.00
48652;BME280;34442;52.362;-1.302;2022-10-22T12:47:06;99610.16;;;16.20;100.00
48652;BME280;34442;52.362;-1.302;2022-10-22T12:49:38;99605.00;;;16.23;100.00
48652;BME280;34442;52.362;-1.302;2022-10-22T12:52:10;99605.00;;;16.23;100.00
48652;BME280;34442;52.362;-1.302;2022-10-22T12:54:38;99610.66;;;16.17;100.00
48652;BME280;34442;52.362;-1.302;2022-10-22T12:57:08;99604.97;;;16.13;100.00
48652;BME280;34442;52.362;-1.302;2022-10-22T12:59:37;99612.00;;;16.09;100.00
48652;BME280;34442;52.362;-1.302;2022-10-22T13:02:25;99616.34;;;16.10;100.00
48652;BME280;34442;52.362;-1.302;2022-10-22T13:07:43;99618.53;;;16.13;100.00
48652;BME280;34442;52.362;-1.302;2022-10-22T13:10:35;99622.59;;;16.16;100.00
48652;BME280;34442;52.362;-1.302;2022-10-22T13:13:00;99607.19;;;16.21;100.00
48652;BME280;34442;52.362;-1.302;2022-10-22T13:18:22;99604.28;;;16.38;100.00
48652;BME280;34442;52.362;-1.302;2022-10-22T13:20:56;99599.91;;;16.37;100.00
48652;BME280;34442;52.362;-1.302;2022-10-22T13:23:25;99598.31;;;16.36;100.00
48652;BME280;34442;52.362;-1.302;2022-10-22T13:28:36;99602.38;;;16.38;100.00
48652;BME280;34442;52.362;-1.302;2022-10-22T13:31:15;99605.13;;;16.44;100.00
48652;BME280;34442;52.362;-1.302;2022-10-22T13:33:44;99605.94;;;16.44;100.00
48652;BME280;34442;52.362;-1.302;2022-10-22T13:36:15;99600.00;;;16.47;100.00
48652;BME280;34442;52.362;-1.302;2022-10-22T13:38:42;99599.72;;;16.49;100.00
48652;BME280;34442;52.362;-1.302;2022-10-22T13:41:21;99610.03;;;16.52;100.00
48652;BME280;34442;52.362;-1.302;2022-10-22T13:43:48;99607.56;;;16.45;100.00
48652;BME280;34442;52.362;-1.302;2022-10-22T13:46:15;99609.78;;;16.53;100.00
48652;BME280;34442;52.362;-1.302;2022-10-22T13:48:43;99613.84;;;16.56;100.00
48652;BME280;34442;52.362;-1.302;2022-10-22T13:51:15;99604.09;;;16.60;100.00
48652;BME280;34442;52.362;-1.302;2022-10-22T13:53:41;99607.91;;;16.64;100.00
48652;BME280;34442;52.362;-1.302;2022-10-22T13:56:12;99604.13;;;16.70;100.00
48652;BME280;34442;52.362;-1.302;2022-10-22T13:58:41;99602.22;;;16.66;100.00
48652;BME280;34442;52.362;-1.302;2022-10-22T14:01:15;99602.31;;;16.76;100.00
48652;BME280;34442;52.362;-1.302;2022-10-22T14:03:43;99600.91;;;16.73;100.00
48652;BME280;34442;52.362;-1.302;2022-10-22T14:06:13;99608.03;;;16.79;100.00
48652;BME280;34442;52.362;-1.302;2022-10-22T14:08:40;99604.75;;;16.77;100.00
48652;BME280;34442;52.362;-1.302;2022-10-22T14:11:10;99596.34;;;16.79;100.00
48652;BME280;34442;52.362;-1.302;2022-10-22T14:13:36;99599.06;;;16.79;100.00
48652;BME280;34442;52.362;-1.302;2022-10-22T14:16:04;99596.88;;;16.81;100.00
48652;BME280;34442;52.362;-1.302;2022-10-22T14:18:31;99591.72;;;16.79;100.00
48652;BME280;34442;52.362;-1.302;2022-10-22T14:21:00;99597.44;;;16.83;100.00
48652;BME280;34442;52.362;-1.302;2022-10-22T14:23:30;99593.06;;;16.82;100.00
48652;BME280;34442;52.362;-1.302;2022-10-22T14:25:58;99592.81;;;16.83;100.00
48652;BME280;34442;52.362;-1.302;2022-10-22T14:28:24;99589.56;;;16.86;100.00
48652;BME280;34442;52.362;-1.302;2022-10-22T14:30:50;99588.50;;;16.88;100.00
48652;BME280;34442;52.362;-1.302;2022-10-22T14:33:22;99597.44;;;16.88;100.00
48652;BME280;34442;52.362;-1.302;2022-10-22T14:35:49;99599.06;;;16.84;100.00
48652;BME280;34442;52.362;-1.302;2022-10-22T14:38:15;99589.31;;;16.88;100.00
48652;BME280;34442;52.362;-1.302;2022-10-22T14:40:42;99597.44;;;16.83;100.00
48652;BME280;34442;52.362;-1.302;2022-10-22T14:43:11;99592.81;;;16.83;100.00
48652;BME280;34442;52.362;-1.302;2022-10-22T14:45:38;99599.88;;;16.84;100.00
48652;BME280;34442;52.362;-1.302;2022-10-22T14:48:05;99590.03;;;16.68;100.00
48652;BME280;34442;52.362;-1.302;2022-10-22T14:50:31;99585.84;;;16.45;100.00
48652;BME280;34442;52.362;-1.302;2022-10-22T14:52:57;99586.13;;;16.44;100.00